الصفحة الرئيسية
METAR-TAF:

METAR-TAF

مطار :

Umiujaq, كيبك, كندا

دائرة عرض: 56-32N, خط طول: 076-31W, ارتفاع: 71 متر

مراقبة الطقس الحالي

تاريخ ووقت الإصدار 51 دقيقة قبل الساعة 16:00UTC
ريح 12 عقدة من الغرب
درجة الحرارة 4°درجة مئوية
الرطوبة 81%
ضغط 1016 hPa
الرؤية: 24.1 كم
ملبد بالغيوم على ارتفاع 1000 قدم

METAR: CYMU 151600Z 26012KT 15SM OVC010 04/01 A3000 RMK SF8 SLP166

زمن: 12:51 (16:51 UTC)


TAF: مفقودة

أرصاد الطقس والتوقعات من أكثر من 4000 مطار (تقارير الطقس للمطار METAR والتنبؤ بالطقس بالمطارTAF).

المحطات المتاحة هي النقط الصفراء والحمراء على الخريطة.

حرك المؤشر فوق النقطة لمعرفة اسم المحطة.

ثم انقر لمعرفة أرصاد وتوقعات الطقس.

لتغيير الخارطة: اضغط على الأزرار الخضراء مع رمز الصليب الأسود للتكبير. على الزر الأخضر مع شرطة للتصغير، أو على الأسهم الخضراء للخرائط المجاورة.


METAR-TAF: